Time;durP1;ratioP1;P1;durP2;ratioP2;P2;SDS_P1;SDS_P2;PMS_P1;PMS_P2;Temp;Humidity;BMP_temperature;BMP_pressure;BME280_temperature;BME280_humidity;BME280_pressure;Samples;Min_cycle;Max_cycle;Signal;HPM_P1;HPM_P2
2021/10/13 00:01:03;;;;;;;2.15;1.25;;;12.20;71.80;;;;;;4883730;29;20053;-89
2021/10/13 00:03:29;;;;;;;1.30;1.20;;;12.30;71.90;;;;;;4867714;29;20024;-89
2021/10/13 00:05:55;;;;;;;1.40;1.30;;;12.30;71.90;;;;;;4883428;29;20482;-88
2021/10/13 00:08:21;;;;;;;1.65;1.40;;;12.20;71.90;;;;;;4852270;29;20035;-89
2021/10/13 00:10:47;;;;;;;1.48;1.23;;;12.20;71.90;;;;;;4914422;29;20031;-89
2021/10/13 00:13:14;;;;;;;1.88;1.10;;;12.20;72.00;;;;;;4868675;29;20028;-89
2021/10/13 00:15:53;;;;;;;1.73;1.30;;;12.20;72.00;;;;;;4883891;29;20052;-89
2021/10/13 00:18:18;;;;;;;1.98;1.30;;;12.20;72.00;;;;;;4869988;29;20036;-89
2021/10/13 00:20:47;;;;;;;1.63;1.20;;;12.20;72.00;;;;;;4868766;29;20041;-89
2021/10/13 00:23:13;;;;;;;2.70;1.30;;;12.20;72.00;;;;;;4884940;29;20103;-89
2021/10/13 00:25:38;;;;;;;3.17;1.40;;;12.20;72.10;;;;;;4871154;29;20024;-88
2021/10/13 00:28:05;;;;;;;1.33;1.23;;;12.20;72.10;;;;;;4887351;29;20489;-87
2021/10/13 00:30:33;;;;;;;1.38;1.27;;;12.20;72.10;;;;;;4871407;29;20027;-88
2021/10/13 00:32:59;;;;;;;1.40;1.13;;;12.20;72.10;;;;;;4887205;29;20028;-89
2021/10/13 00:35:28;;;;;;;1.33;1.15;;;12.20;72.10;;;;;;4871802;29;20037;-88
2021/10/13 00:37:54;;;;;;;1.23;1.13;;;12.20;72.20;;;;;;4887050;29;20036;-88
2021/10/13 00:40:29;;;;;;;1.73;1.38;;;12.20;72.20;;;;;;4870949;29;20070;-89
2021/10/13 00:42:55;;;;;;;1.67;1.08;;;12.20;72.20;;;;;;4887193;29;20039;-88
2021/10/13 00:45:21;;;;;;;1.90;1.20;;;12.20;72.10;;;;;;4871413;29;20043;-89
2021/10/13 00:47:47;;;;;;;1.20;1.10;;;12.20;72.20;;;;;;4886604;29;20025;-89
2021/10/13 00:50:16;;;;;;;1.63;1.30;;;12.20;72.20;;;;;;4870793;29;20059;-89
2021/10/13 00:52:43;;;;;;;1.30;1.20;;;12.10;72.20;;;;;;4902959;29;20040;-89
2021/10/13 00:55:19;;;;;;;1.45;1.13;;;12.10;72.20;;;;;;4872135;29;20032;-89
2021/10/13 00:57:51;;;;;;;1.38;1.10;;;12.20;72.30;;;;;;4872676;29;20040;-88
2021/10/13 01:00:21;;;;;;;1.85;1.17;;;12.10;72.20;;;;;;4903298;29;20032;-89
2021/10/13 01:02:56;;;;;;;2.47;1.40;;;12.10;72.20;;;;;;4886513;29;20059;-91
2021/10/13 01:05:51;;;;;;;1.23;1.13;;;12.10;72.20;;;;;;4886257;29;20036;-89
2021/10/13 01:08:34;;;;;;;1.20;1.10;;;12.10;72.30;;;;;;4887130;29;20032;-91
2021/10/13 01:11:19;;;;;;;1.50;1.20;;;12.10;72.20;;;;;;4887147;29;20043;-92
2021/10/13 01:14:08;;;;;;;1.00;1.00;;;12.10;72.30;;;;;;4871220;29;20128;-91
2021/10/13 01:17:12;;;;;;;0.90;0.90;;;12.10;72.30;;;;;;4886133;29;20052;-92
2021/10/13 01:19:46;;;;;;;2.35;1.10;;;12.10;72.40;;;;;;4900825;29;20123;-91
2021/10/13 01:22:12;;;;;;;1.30;1.20;;;12.00;72.10;;;;;;4886700;29;20074;-91
2021/10/13 01:25:25;;;;;;;2.05;1.20;;;12.00;72.30;;;;;;4870776;29;20385;-91
2021/10/13 01:28:01;;;;;;;1.00;1.00;;;12.00;72.50;;;;;;4880563;29;20135;-91
2021/10/13 01:30:35;;;;;;;1.10;1.00;;;12.00;72.30;;;;;;4870387;29;20115;-91
2021/10/13 01:33:08;;;;;;;1.08;1.08;;;12.00;72.30;;;;;;4870429;29;20036;-91
2021/10/13 01:35:42;;;;;;;1.15;1.05;;;12.00;72.40;;;;;;4884772;29;20044;-89
2021/10/13 01:38:16;;;;;;;1.27;0.98;;;12.00;72.40;;;;;;4885607;29;20168;-89
2021/10/13 01:40:43;;;;;;;2.97;1.20;;;12.00;72.40;;;;;;4870135;29;20039;-90
2021/10/13 01:43:17;;;;;;;1.05;1.02;;;12.00;72.40;;;;;;4884958;29;20028;-90
2021/10/13 01:45:49;;;;;;;1.17;0.93;;;12.00;72.50;;;;;;4885149;29;20044;-89
2021/10/13 01:48:17;;;;;;;1.30;1.00;;;11.90;72.50;;;;;;4884849;29;20025;-89
2021/10/13 01:50:52;;;;;;;0.88;0.88;;;12.00;72.50;;;;;;4885066;29;20033;-89
2021/10/13 01:53:21;;;;;;;1.13;1.02;;;12.00;72.50;;;;;;4869784;29;20032;-89
2021/10/13 01:55:48;;;;;;;1.42;1.02;;;12.00;72.50;;;;;;4869788;29;20036;-89
2021/10/13 01:58:24;;;;;;;1.13;1.00;;;12.00;72.50;;;;;;4870326;29;20119;-89
2021/10/13 02:00:51;;;;;;;1.48;1.15;;;11.90;72.50;;;;;;4869765;29;20080;-89
2021/10/13 02:03:22;;;;;;;1.27;0.95;;;12.00;72.60;;;;;;4885062;29;20028;-90
2021/10/13 02:05:53;;;;;;;1.27;0.98;;;11.90;72.50;;;;;;4868929;29;20033;-90
2021/10/13 02:08:24;;;;;;;1.50;1.10;;;11.90;72.60;;;;;;4869552;29;20089;-89
2021/10/13 02:10:52;;;;;;;1.30;1.20;;;11.90;72.60;;;;;;4886553;29;20039;-89
2021/10/13 02:13:19;;;;;;;1.27;1.17;;;11.90;72.50;;;;;;4869597;29;20025;-90
2021/10/13 02:15:48;;;;;;;1.30;0.95;;;11.90;72.50;;;;;;4884906;29;20052;-90
2021/10/13 02:18:18;;;;;;;2.47;1.20;;;11.90;72.60;;;;;;4870671;29;20092;-89
2021/10/13 02:20:45;;;;;;;3.00;1.27;;;11.90;72.60;;;;;;4886949;29;20043;-90
2021/10/13 02:23:13;;;;;;;1.33;1.00;;;11.90;72.60;;;;;;4871165;29;20040;-90
2021/10/13 02:25:42;;;;;;;0.98;0.95;;;11.90;72.60;;;;;;4870465;29;20044;-91
2021/10/13 02:28:35;;;;;;;1.20;1.10;;;11.90;72.60;;;;;;4885617;29;20470;-89
2021/10/13 02:31:01;;;;;;;2.50;1.20;;;11.90;72.70;;;;;;4886531;29;20123;-88
2021/10/13 02:33:27;;;;;;;1.25;1.10;;;11.80;72.40;;;;;;4871510;29;20059;-88
2021/10/13 02:36:00;;;;;;;2.08;1.30;;;11.80;72.50;;;;;;4871949;29;20107;-89
2021/10/13 02:38:28;;;;;;;1.20;1.10;;;11.80;72.50;;;;;;4885386;29;20063;-89
2021/10/13 02:40:54;;;;;;;1.40;1.15;;;11.80;72.60;;;;;;4868657;29;20473;-88
2021/10/13 02:43:23;;;;;;;1.17;1.00;;;11.80;72.60;;;;;;4901058;29;20048;-89
2021/10/13 02:45:59;;;;;;;1.35;1.10;;;11.80;72.60;;;;;;4884249;29;20040;-88
2021/10/13 02:48:33;;;;;;;1.00;1.00;;;11.80;72.60;;;;;;4885576;29;20119;-88
2021/10/13 02:51:13;;;;;;;1.73;1.20;;;11.80;72.60;;;;;;4885421;29;20033;-88
2021/10/13 02:54:14;;;;;;;1.35;1.00;;;11.80;72.60;;;;;;4885383;29;20040;-89
2021/10/13 02:56:46;;;;;;;1.05;1.00;;;11.80;72.70;;;;;;4873138;29;20043;-89
2021/10/13 02:59:28;;;;;;;1.92;1.33;;;11.80;72.60;;;;;;4886207;29;20115;-89
2021/10/13 03:02:04;;;;;;;1.83;1.00;;;11.80;72.70;;;;;;4885491;29;20041;-90
2021/10/13 03:04:42;;;;;;;1.10;1.00;;;11.70;72.60;;;;;;4885526;29;20097;-91
2021/10/13 03:07:19;;;;;;;1.25;1.08;;;11.70;72.70;;;;;;4885604;29;20037;-90
2021/10/13 03:09:56;;;;;;;0.90;0.90;;;11.70;72.60;;;;;;4884923;29;20055;-90
2021/10/13 03:12:27;;;;;;;1.33;1.00;;;11.70;72.70;;;;;;4885421;29;20040;-90
2021/10/13 03:14:57;;;;;;;1.05;0.90;;;11.70;72.70;;;;;;4869444;29;20368;-90
2021/10/13 03:17:37;;;;;;;1.10;1.00;;;11.70;72.70;;;;;;4885488;29;20485;-91
2021/10/13 03:20:04;;;;;;;1.23;1.10;;;11.70;73.40;;;;;;4871060;29;20036;-93
2021/10/13 03:22:34;;;;;;;1.65;1.10;;;11.70;72.70;;;;;;4869412;29;20036;-94
2021/10/13 03:25:00;;;;;;;1.20;1.00;;;11.70;72.80;;;;;;4885570;29;20589;-90
2021/10/13 03:27:31;;;;;;;0.90;0.90;;;11.70;72.70;;;;;;4870667;29;20115;-90
2021/10/13 03:30:03;;;;;;;2.22;1.13;;;11.70;72.70;;;;;;4883851;29;20076;-90
2021/10/13 03:32:29;;;;;;;1.15;1.08;;;11.70;72.80;;;;;;4869210;29;20036;-90
2021/10/13 03:34:55;;;;;;;1.42;1.00;;;11.70;72.70;;;;;;4884521;29;20099;-91
2021/10/13 03:37:25;;;;;;;1.27;1.17;;;11.70;72.80;;;;;;4869674;29;20077;-90
2021/10/13 03:39:53;;;;;;;0.95;0.95;;;11.70;72.80;;;;;;4885429;29;20119;-91
2021/10/13 03:42:24;;;;;;;1.83;1.10;;;11.70;72.80;;;;;;4868929;29;20087;-91
2021/10/13 03:44:49;;;;;;;1.40;0.95;;;11.70;72.90;;;;;;4884171;29;20024;-90
2021/10/13 03:47:15;;;;;;;1.08;1.08;;;11.70;72.90;;;;;;4868810;29;20123;-90
2021/10/13 03:49:41;;;;;;;1.00;0.95;;;11.70;72.90;;;;;;4884710;29;20044;-92
2021/10/13 03:52:07;;;;;;;0.88;0.88;;;11.70;72.90;;;;;;4869897;29;20013;-90
2021/10/13 03:54:36;;;;;;;1.05;1.00;;;11.70;72.90;;;;;;4884043;29;20124;-90
2021/10/13 03:57:05;;;;;;;0.90;0.90;;;11.70;72.90;;;;;;4885280;29;20382;-90
2021/10/13 03:59:36;;;;;;;1.00;1.00;;;11.80;73.00;;;;;;4872815;29;20032;-89
2021/10/13 04:02:04;;;;;;;1.20;1.05;;;11.80;73.00;;;;;;4887616;29;20029;-88
2021/10/13 04:04:32;;;;;;;1.73;1.02;;;11.80;73.00;;;;;;4873077;29;20029;-86
2021/10/13 04:06:58;;;;;;;1.27;1.08;;;11.80;73.00;;;;;;4872036;29;20079;-89
2021/10/13 04:09:24;;;;;;;1.05;0.95;;;11.80;73.00;;;;;;4872458;29;20461;-89
2021/10/13 04:11:50;;;;;;;1.08;1.00;;;11.70;72.90;;;;;;4887339;29;20025;-89
2021/10/13 04:14:21;;;;;;;0.80;0.80;;;11.80;73.00;;;;;;4872336;29;20068;-90
2021/10/13 04:16:51;;;;;;;1.17;1.00;;;11.80;73.00;;;;;;4887462;29;20063;-90
2021/10/13 04:19:17;;;;;;;1.30;1.20;;;11.80;73.00;;;;;;4887677;29;20039;-90
2021/10/13 04:21:49;;;;;;;1.08;1.00;;;11.80;73.00;;;;;;4887452;29;20060;-90
2021/10/13 04:24:14;;;;;;;2.08;1.30;;;11.80;73.10;;;;;;4888170;29;20037;-90
2021/10/13 04:26:40;;;;;;;0.93;0.93;;;11.80;73.00;;;;;;4871913;29;20045;-89
2021/10/13 04:29:06;;;;;;;1.20;1.10;;;11.80;73.10;;;;;;4887662;29;20036;-90
2021/10/13 04:31:32;;;;;;;2.55;1.50;;;11.80;73.10;;;;;;4871931;29;20031;-89
2021/10/13 04:34:01;;;;;;;1.05;1.00;;;11.80;73.10;;;;;;4872088;29;20036;-90
2021/10/13 04:36:29;;;;;;;1.10;1.00;;;11.80;73.10;;;;;;4871827;29;20029;-89
2021/10/13 04:38:55;;;;;;;0.98;0.93;;;11.80;73.10;;;;;;4855890;29;20043;-89
2021/10/13 04:41:21;;;;;;;1.40;1.00;;;11.80;73.10;;;;;;4871185;29;20033;-96
2021/10/13 04:43:47;;;;;;;1.05;0.95;;;11.80;73.10;;;;;;4886066;29;20044;-85
2021/10/13 04:46:12;;;;;;;1.10;1.00;;;11.80;73.10;;;;;;4886253;29;20115;-87
2021/10/13 04:48:38;;;;;;;1.13;1.00;;;11.80;73.20;;;;;;4886434;29;20040;-84
2021/10/13 04:51:04;;;;;;;1.35;1.10;;;11.80;73.10;;;;;;4885983;29;20394;-83
2021/10/13 04:53:30;;;;;;;0.95;0.88;;;11.80;73.10;;;;;;4870415;29;20088;-84
2021/10/13 04:55:56;;;;;;;1.20;1.10;;;11.80;73.10;;;;;;4870574;29;20123;-82
2021/10/13 04:58:21;;;;;;;1.20;1.10;;;11.80;73.10;;;;;;4885648;29;20088;-80
2021/10/13 05:00:47;;;;;;;1.48;1.08;;;11.80;73.20;;;;;;4884998;29;20031;-82
2021/10/13 05:03:13;;;;;;;1.63;1.00;;;11.80;73.10;;;;;;4901550;29;20037;-81
2021/10/13 05:05:40;;;;;;;1.42;1.08;;;11.80;73.10;;;;;;4886111;29;20484;-82
2021/10/13 05:08:07;;;;;;;1.42;1.10;;;11.80;73.20;;;;;;4870011;29;20041;-83
2021/10/13 05:10:33;;;;;;;1.00;1.00;;;11.80;73.20;;;;;;4870216;29;20033;-81
2021/10/13 05:12:59;;;;;;;1.83;1.40;;;11.80;73.20;;;;;;4884864;29;20032;-83
2021/10/13 05:15:24;;;;;;;1.50;1.00;;;11.80;73.20;;;;;;4883971;29;20116;-81
2021/10/13 05:17:50;;;;;;;1.15;1.10;;;11.80;73.20;;;;;;4869843;29;20043;-82
2021/10/13 05:20:16;;;;;;;1.30;1.20;;;11.80;73.20;;;;;;4870673;29;20105;-83
2021/10/13 05:22:42;;;;;;;1.10;1.00;;;11.80;73.20;;;;;;4886028;29;20084;-84
2021/10/13 05:25:08;;;;;;;1.05;1.00;;;11.80;73.10;;;;;;4884683;29;20093;-83
2021/10/13 05:27:34;;;;;;;1.35;1.17;;;11.80;73.10;;;;;;4901105;29;20067;-82
2021/10/13 05:30:00;;;;;;;1.35;1.10;;;11.90;73.20;;;;;;4869974;29;20033;-84
2021/10/13 05:32:25;;;;;;;1.40;1.00;;;11.80;73.10;;;;;;4901023;29;20406;-82
2021/10/13 05:34:51;;;;;;;1.48;1.20;;;11.80;73.10;;;;;;4868976;29;20167;-80
2021/10/13 05:37:17;;;;;;;1.33;1.15;;;11.80;73.10;;;;;;4868831;29;20060;-81
2021/10/13 05:39:43;;;;;;;2.10;1.40;;;11.80;73.10;;;;;;4869410;29;20123;-83
2021/10/13 05:42:08;;;;;;;1.50;1.10;;;11.80;73.10;;;;;;4869201;29;20067;-83
2021/10/13 05:44:34;;;;;;;1.23;1.13;;;11.80;73.10;;;;;;4901123;29;20032;-83
2021/10/13 05:47:00;;;;;;;1.33;1.23;;;11.80;73.10;;;;;;4869032;29;20402;-83
2021/10/13 05:49:26;;;;;;;1.27;1.10;;;11.80;73.10;;;;;;4868963;29;20462;-83
2021/10/13 05:51:51;;;;;;;1.63;1.20;;;11.80;73.10;;;;;;4901334;29;20434;-82
2021/10/13 05:54:17;;;;;;;1.30;1.10;;;11.80;73.10;;;;;;4901237;29;20072;-83
2021/10/13 05:56:43;;;;;;;1.48;1.38;;;11.80;73.10;;;;;;4900370;29;20040;-82
2021/10/13 05:59:09;;;;;;;1.83;1.20;;;11.80;73.10;;;;;;4901361;29;20032;-82
2021/10/13 06:01:35;;;;;;;1.63;1.20;;;11.80;73.10;;;;;;4900669;29;20496;-84
2021/10/13 06:04:01;;;;;;;1.42;1.10;;;11.70;73.00;;;;;;4885686;29;20045;-83
2021/10/13 06:06:26;;;;;;;1.45;1.10;;;11.70;73.00;;;;;;4869921;29;20362;-81
2021/10/13 06:08:52;;;;;;;1.58;1.20;;;11.70;73.00;;;;;;4885089;29;20033;-84
2021/10/13 06:11:18;;;;;;;1.60;1.33;;;11.80;73.10;;;;;;4885392;29;20061;-83
2021/10/13 06:13:44;;;;;;;1.90;1.38;;;11.70;73.00;;;;;;4901233;29;20041;-83
2021/10/13 06:16:11;;;;;;;2.08;1.30;;;11.70;73.00;;;;;;4884486;29;20410;-83
2021/10/13 06:18:37;;;;;;;1.48;1.20;;;11.70;73.10;;;;;;4884439;29;20100;-83
2021/10/13 06:21:03;;;;;;;3.00;1.27;;;11.70;73.10;;;;;;4868816;29;20021;-84
2021/10/13 06:23:29;;;;;;;2.00;1.20;;;11.70;73.10;;;;;;4883830;29;20085;-83
2021/10/13 06:25:55;;;;;;;1.75;1.10;;;11.70;73.10;;;;;;4883987;29;20474;-84
2021/10/13 06:28:21;;;;;;;2.15;1.27;;;11.70;73.10;;;;;;4869206;29;20124;-85
2021/10/13 06:30:47;;;;;;;1.42;1.20;;;11.70;73.10;;;;;;4885095;29;20063;-85
2021/10/13 06:33:15;;;;;;;1.50;1.20;;;11.70;73.10;;;;;;4869630;29;20028;-85
2021/10/13 06:35:40;;;;;;;1.42;1.10;;;11.70;73.10;;;;;;4884738;29;20148;-85
2021/10/13 06:38:07;;;;;;;1.33;1.20;;;11.70;73.10;;;;;;4884350;29;20390;-85
2021/10/13 06:40:33;;;;;;;1.60;1.25;;;11.70;73.10;;;;;;4884328;29;20029;-86
2021/10/13 06:43:00;;;;;;;1.52;1.25;;;11.70;73.20;;;;;;4885273;29;20412;-85
2021/10/13 06:45:26;;;;;;;1.23;1.00;;;11.70;73.20;;;;;;4868987;29;20044;-85
2021/10/13 06:47:52;;;;;;;2.05;1.20;;;11.70;73.20;;;;;;4899560;29;20473;-85
2021/10/13 06:50:18;;;;;;;1.48;1.15;;;11.70;73.20;;;;;;4884032;29;20032;-83
2021/10/13 06:52:44;;;;;;;1.42;1.10;;;11.70;73.20;;;;;;4868450;29;20036;-85
2021/10/13 06:55:10;;;;;;;1.25;1.10;;;11.70;73.20;;;;;;4884626;29;20040;-85
2021/10/13 06:57:36;;;;;;;1.85;1.30;;;11.70;73.20;;;;;;4884520;29;20123;-84
2021/10/13 07:00:05;;;;;;;1.58;1.40;;;11.70;73.30;;;;;;4868044;29;20067;-85
2021/10/13 07:02:30;;;;;;;1.33;1.17;;;11.70;73.30;;;;;;4867719;29;20254;-85
2021/10/13 07:04:56;;;;;;;1.20;1.10;;;11.80;73.30;;;;;;4883801;29;20033;-84
2021/10/13 07:07:22;;;;;;;2.17;1.40;;;11.70;73.30;;;;;;4899430;29;20064;-86
2021/10/13 07:09:48;;;;;;;1.38;1.10;;;11.80;73.30;;;;;;4899170;29;20036;-85
2021/10/13 07:12:13;;;;;;;1.30;1.20;;;11.80;73.30;;;;;;4867916;29;20037;-85
2021/10/13 07:14:39;;;;;;;1.92;1.30;;;11.80;73.30;;;;;;4883444;29;20056;-87
2021/10/13 07:17:05;;;;;;;3.05;1.30;;;11.80;73.40;;;;;;4883610;29;20040;-84
2021/10/13 07:19:31;;;;;;;1.65;1.25;;;11.80;73.40;;;;;;4867750;29;20048;-84
2021/10/13 07:21:56;;;;;;;2.35;1.27;;;11.80;73.40;;;;;;4868757;29;20110;-86
2021/10/13 07:24:22;;;;;;;1.17;1.00;;;11.80;73.40;;;;;;4899790;29;20063;-86
2021/10/13 07:26:48;;;;;;;1.50;1.20;;;11.80;73.40;;;;;;4867461;29;20383;-86
2021/10/13 07:29:14;;;;;;;1.17;1.00;;;11.80;73.40;;;;;;4868245;29;20048;-83
2021/10/13 07:31:40;;;;;;;1.20;1.10;;;11.80;73.40;;;;;;4869291;29;20035;-82
2021/10/13 07:34:05;;;;;;;1.20;1.10;;;11.80;73.40;;;;;;4890110;29;20536;-83
2021/10/13 07:36:33;;;;;;;1.25;1.10;;;11.90;73.50;;;;;;4874951;29;20132;-85
2021/10/13 07:38:59;;;;;;;0.98;0.98;;;11.90;73.60;;;;;;4889733;29;20462;-85
2021/10/13 07:41:26;;;;;;;1.38;1.20;;;11.90;73.60;;;;;;4890194;29;20074;-84
2021/10/13 07:43:52;;;;;;;1.20;1.08;;;11.90;73.60;;;;;;4874402;29;20123;-84
2021/10/13 07:46:18;;;;;;;1.27;1.17;;;11.90;73.60;;;;;;4890330;29;20493;-84
2021/10/13 07:48:46;;;;;;;1.20;1.10;;;12.00;74.30;;;;;;4874087;29;20088;-84
2021/10/13 07:51:12;;;;;;;1.40;1.30;;;12.00;73.70;;;;;;4889961;29;20052;-85
2021/10/13 07:53:38;;;;;;;1.83;1.20;;;12.00;73.60;;;;;;4905351;29;20093;-84
2021/10/13 07:56:03;;;;;;;1.17;1.00;;;12.00;73.60;;;;;;4889697;29;20040;-85
2021/10/13 07:58:29;;;;;;;1.30;1.20;;;12.00;73.60;;;;;;4873934;29;20032;-85
2021/10/13 08:00:55;;;;;;;1.85;1.10;;;12.00;73.60;;;;;;4873583;29;20127;-86
2021/10/13 08:03:21;;;;;;;1.70;1.20;;;12.00;73.60;;;;;;4889505;29;20385;-84
2021/10/13 08:05:47;;;;;;;1.08;1.00;;;12.10;73.70;;;;;;4888994;29;20041;-85
2021/10/13 08:08:12;;;;;;;1.15;1.10;;;12.10;73.70;;;;;;4889449;29;20418;-85
2021/10/13 08:10:38;;;;;;;1.25;1.13;;;12.10;73.70;;;;;;4906033;29;20041;-84
2021/10/13 08:13:04;;;;;;;1.95;1.00;;;12.10;73.70;;;;;;4873858;29;20037;-85
2021/10/13 08:15:31;;;;;;;1.63;1.13;;;12.10;73.70;;;;;;4874416;29;20060;-85
2021/10/13 08:17:57;;;;;;;1.20;1.10;;;12.10;73.70;;;;;;4874472;29;20104;-85
2021/10/13 08:20:23;;;;;;;1.30;1.20;;;12.20;73.70;;;;;;4889395;29;20069;-85
2021/10/13 08:22:48;;;;;;;1.38;1.20;;;12.20;73.70;;;;;;4873789;29;20029;-86
2021/10/13 08:25:16;;;;;;;1.58;1.10;;;12.20;73.70;;;;;;4905947;29;20072;-85
2021/10/13 08:27:42;;;;;;;1.25;1.15;;;12.20;73.70;;;;;;4920922;29;20033;-85
2021/10/13 08:30:11;;;;;;;1.48;1.10;;;12.30;73.90;;;;;;4904903;29;20092;-84
2021/10/13 08:32:36;;;;;;;1.48;1.13;;;12.30;73.80;;;;;;4905779;29;20024;-85
2021/10/13 08:35:05;;;;;;;2.03;1.20;;;12.30;73.80;;;;;;4889201;29;20064;-86
2021/10/13 08:37:31;;;;;;;1.83;1.20;;;12.30;73.80;;;;;;4873198;29;20033;-86
2021/10/13 08:39:58;;;;;;;1.17;1.08;;;12.30;73.80;;;;;;4904253;29;20041;-85
2021/10/13 08:42:25;;;;;;;1.20;1.10;;;12.40;73.90;;;;;;4889166;29;20474;-87
2021/10/13 08:44:55;;;;;;;0.93;0.93;;;12.40;73.90;;;;;;4885260;29;20055;-87
2021/10/13 08:47:21;;;;;;;1.15;1.00;;;12.40;73.90;;;;;;4886398;29;20098;-87
2021/10/13 08:49:48;;;;;;;1.23;1.10;;;12.50;73.90;;;;;;4886468;29;20029;-87
2021/10/13 08:52:14;;;;;;;1.75;1.20;;;12.50;73.90;;;;;;4902414;29;20065;-87
2021/10/13 08:54:40;;;;;;;2.03;1.20;;;12.50;73.90;;;;;;4871318;29;20031;-86
2021/10/13 08:57:18;;;;;;;2.42;1.45;;;12.60;73.90;;;;;;4886912;29;20051;-86
2021/10/13 08:59:47;;;;;;;1.42;1.30;;;12.60;73.90;;;;;;4886754;29;20076;-86
2021/10/13 09:02:14;;;;;;;1.20;1.10;;;12.70;73.90;;;;;;4886659;29;20032;-86
2021/10/13 09:05:04;;;;;;;1.35;1.20;;;12.70;73.80;;;;;;4869720;29;20045;-81
2021/10/13 09:07:30;;;;;;;1.23;1.15;;;12.70;73.80;;;;;;4885839;29;20056;-87
2021/10/13 09:09:58;;;;;;;2.08;1.30;;;12.70;73.60;;;;;;4870591;29;20115;-85
2021/10/13 09:12:33;;;;;;;1.15;1.08;;;12.80;73.70;;;;;;4901640;29;20064;-86
2021/10/13 09:15:13;;;;;;;1.98;1.20;;;12.80;73.70;;;;;;4901784;29;20099;-85
2021/10/13 09:18:05;;;;;;;1.00;1.00;;;12.80;73.60;;;;;;4916880;29;20469;-84
2021/10/13 09:20:40;;;;;;;1.33;1.08;;;12.90;73.70;;;;;;4883758;29;20044;-85
2021/10/13 09:23:30;;;;;;;1.80;1.20;;;12.90;73.50;;;;;;4869820;29;20036;-85
2021/10/13 09:26:09;;;;;;;1.38;1.10;;;12.90;73.50;;;;;;4885593;29;20063;-84
2021/10/13 09:28:36;;;;;;;1.80;1.45;;;13.00;73.60;;;;;;4884879;29;20063;-85
2021/10/13 09:31:22;;;;;;;2.03;1.23;;;13.00;73.40;;;;;;4869153;29;20020;-85
2021/10/13 09:34:03;;;;;;;1.35;1.13;;;13.00;73.60;;;;;;4885102;29;20040;-85
2021/10/13 09:36:43;;;;;;;1.45;1.25;;;13.10;73.50;;;;;;4868937;29;20186;-85
2021/10/13 09:39:18;;;;;;;1.33;1.23;;;13.10;73.50;;;;;;4885191;29;20387;-86
2021/10/13 09:42:13;;;;;;;2.83;1.70;;;13.20;73.40;;;;;;4885068;29;20039;-86
2021/10/13 09:44:51;;;;;;;1.20;1.00;;;13.10;73.40;;;;;;4901882;29;20048;-85
2021/10/13 09:47:17;;;;;;;1.20;1.10;;;13.20;73.30;;;;;;4884621;29;20036;-85
2021/10/13 09:49:49;;;;;;;1.10;1.00;;;13.20;73.20;;;;;;4884607;29;20031;-85
2021/10/13 09:52:23;;;;;;;1.88;1.20;;;13.30;73.40;;;;;;4900781;29;20092;-91
2021/10/13 09:55:05;;;;;;;1.10;1.00;;;13.30;73.30;;;;;;4884803;29;20036;-87
2021/10/13 09:57:39;;;;;;;1.00;1.00;;;13.40;73.30;;;;;;4884471;29;20036;-80
2021/10/13 10:00:11;;;;;;;1.27;1.05;;;13.40;73.20;;;;;;4916931;29;20068;-80
2021/10/13 10:02:54;;;;;;;1.02;1.00;;;13.50;73.20;;;;;;4915307;29;20033;-83
2021/10/13 10:05:24;;;;;;;1.25;1.10;;;13.50;73.20;;;;;;4915716;29;20044;-85
2021/10/13 10:08:00;;;;;;;1.20;1.10;;;13.50;73.10;;;;;;4884168;29;20107;-86
2021/10/13 10:10:25;;;;;;;1.35;1.20;;;13.60;73.20;;;;;;4901077;29;20024;-85
2021/10/13 10:12:56;;;;;;;1.38;1.08;;;13.70;73.10;;;;;;4899875;29;20131;-85
2021/10/13 10:15:42;;;;;;;1.00;0.90;;;13.70;73.10;;;;;;4900781;29;20485;-85
2021/10/13 10:18:33;;;;;;;1.08;0.82;;;13.70;73.20;;;;;;4868962;29;20389;-85
2021/10/13 10:21:24;;;;;;;1.17;1.08;;;13.80;73.20;;;;;;4883875;29;20541;-86
2021/10/13 10:23:58;;;;;;;1.95;1.00;;;13.90;73.30;;;;;;4883632;29;20028;-86
2021/10/13 10:26:28;;;;;;;1.20;1.10;;;13.90;73.10;;;;;;4884177;29;20096;-86
2021/10/13 10:28:58;;;;;;;1.67;1.08;;;13.90;73.20;;;;;;4883616;29;20474;-84
2021/10/13 10:31:26;;;;;;;1.30;1.20;;;14.00;73.20;;;;;;4883648;29;20032;-83
2021/10/13 10:34:07;;;;;;;1.65;0.90;;;14.00;73.20;;;;;;4884127;29;20059;-82
2021/10/13 10:36:37;;;;;;;1.10;1.08;;;14.10;73.40;;;;;;4884125;29;20071;-85
2021/10/13 10:39:05;;;;;;;1.00;1.00;;;14.20;73.30;;;;;;4868407;29;20056;-84
2021/10/13 10:41:54;;;;;;;1.17;1.10;;;14.20;73.20;;;;;;4868082;29;20052;-86
2021/10/13 10:44:44;;;;;;;0.90;0.90;;;14.20;73.40;;;;;;4883228;29;20039;-83
2021/10/13 10:47:12;;;;;;;1.17;1.08;;;14.30;73.40;;;;;;4883278;29;20043;-85
2021/10/13 10:49:47;;;;;;;1.33;1.20;;;14.30;73.20;;;;;;4867417;29;20036;-83
2021/10/13 10:52:21;;;;;;;2.65;1.00;;;14.40;73.40;;;;;;4868154;29;20104;-85
2021/10/13 10:55:07;;;;;;;1.00;1.00;;;14.40;73.40;;;;;;4883443;29;20119;-87
2021/10/13 10:57:43;;;;;;;0.80;0.80;;;14.50;73.40;;;;;;4883870;29;20048;-85
2021/10/13 11:00:35;;;;;;;1.20;0.93;;;14.50;73.40;;;;;;4883030;29;20486;-85
2021/10/13 11:03:23;;;;;;;0.88;0.70;;;14.60;73.70;;;;;;4872944;29;20107;-85
2021/10/13 11:05:48;;;;;;;0.80;0.80;;;14.60;73.60;;;;;;4867314;29;20056;-87
2021/10/13 11:08:14;;;;;;;1.23;0.90;;;14.70;73.50;;;;;;4882741;29;20438;-86
2021/10/13 11:10:41;;;;;;;1.85;1.00;;;14.70;73.50;;;;;;4899037;29;20037;-85
2021/10/13 11:13:07;;;;;;;1.92;1.00;;;14.70;73.50;;;;;;4867916;29;20071;-84
2021/10/13 11:15:33;;;;;;;0.88;0.85;;;14.80;73.60;;;;;;4867914;29;20136;-86
2021/10/13 11:18:15;;;;;;;1.23;0.98;;;14.80;73.90;;;;;;4884424;29;20039;-85
2021/10/13 11:20:43;;;;;;;2.25;1.15;;;14.90;73.70;;;;;;4883926;29;20044;-85
2021/10/13 11:23:11;;;;;;;1.15;0.95;;;14.90;73.50;;;;;;4868159;29;20043;-85
2021/10/13 11:25:37;;;;;;;1.42;1.05;;;14.90;73.60;;;;;;4883209;29;20040;-81
2021/10/13 11:28:06;;;;;;;1.17;0.90;;;15.00;73.70;;;;;;4882613;29;20053;-79
2021/10/13 11:30:49;;;;;;;1.23;1.00;;;15.00;73.70;;;;;;4882880;29;20039;-81
2021/10/13 11:33:17;;;;;;;0.95;0.85;;;15.00;73.80;;;;;;4882945;29;20350;-82
2021/10/13 11:35:44;;;;;;;1.05;0.85;;;15.10;73.80;;;;;;4882700;29;20032;-84
2021/10/13 11:38:21;;;;;;;1.73;1.00;;;15.10;73.80;;;;;;4882515;29;20132;-81
2021/10/13 11:40:48;;;;;;;1.35;1.00;;;15.10;73.90;;;;;;4898916;29;20029;-82
2021/10/13 11:43:18;;;;;;;2.95;1.48;;;15.20;73.90;;;;;;4882325;29;20052;-82
2021/10/13 11:45:54;;;;;;;2.20;0.93;;;15.20;73.90;;;;;;4883591;29;20498;-83
2021/10/13 11:48:27;;;;;;;1.10;1.00;;;15.20;74.00;;;;;;4867162;29;20028;-81
2021/10/13 11:50:55;;;;;;;1.17;1.08;;;15.30;74.60;;;;;;4898858;29;20033;-85
2021/10/13 11:53:21;;;;;;;1.67;0.98;;;15.30;73.90;;;;;;4867378;29;20076;-84
2021/10/13 11:55:47;;;;;;;1.00;0.80;;;15.30;73.80;;;;;;4883247;29;20044;-86
2021/10/13 11:58:26;;;;;;;1.63;1.00;;;15.30;74.50;;;;;;4883273;29;20028;-88
2021/10/13 12:00:52;;;;;;;1.38;0.90;;;15.30;73.90;;;;;;4883591;29;20080;-87
2021/10/13 12:03:18;;;;;;;1.25;0.90;;;15.40;73.80;;;;;;4883275;29;20454;-93
2021/10/13 12:05:50;;;;;;;1.83;0.90;;;15.40;73.80;;;;;;4868100;29;20052;-87
2021/10/13 12:08:18;;;;;;;0.85;0.85;;;15.40;73.70;;;;;;4868643;29;20021;-88
2021/10/13 12:10:49;;;;;;;1.38;0.90;;;15.50;73.70;;;;;;4867733;29;20059;-88
2021/10/13 12:13:18;;;;;;;1.38;1.00;;;15.50;73.70;;;;;;4883253;29;20028;-88
2021/10/13 12:15:46;;;;;;;1.33;0.88;;;15.50;73.70;;;;;;4867134;29;20071;-83
2021/10/13 12:18:14;;;;;;;1.17;0.75;;;15.50;73.60;;;;;;4883441;29;20379;-83
2021/10/13 12:20:41;;;;;;;0.80;0.70;;;15.60;73.60;;;;;;4885625;29;20060;-83
2021/10/13 12:23:24;;;;;;;1.55;1.00;;;15.60;73.60;;;;;;4886045;29;20029;-83
2021/10/13 12:25:50;;;;;;;0.95;0.80;;;15.60;73.60;;;;;;4901671;29;20043;-83
2021/10/13 12:28:28;;;;;;;1.00;0.80;;;15.60;73.50;;;;;;4885755;29;20032;-82
2021/10/13 12:31:09;;;;;;;0.70;0.70;;;15.60;73.60;;;;;;4886329;29;20038;-82
2021/10/13 12:33:47;;;;;;;0.75;0.70;;;15.70;73.60;;;;;;4886979;29;20032;-82
2021/10/13 12:36:18;;;;;;;1.42;0.77;;;15.70;73.50;;;;;;4886186;29;20036;-82
2021/10/13 12:38:48;;;;;;;1.10;1.00;;;15.70;73.50;;;;;;4886044;29;20060;-81
2021/10/13 12:41:16;;;;;;;1.30;0.90;;;15.70;73.50;;;;;;4885026;29;20033;-82
2021/10/13 12:43:47;;;;;;;0.82;0.70;;;15.70;73.40;;;;;;4885424;29;20060;-82
2021/10/13 12:46:25;;;;;;;1.23;0.80;;;15.70;73.40;;;;;;4885508;29;20037;-82
2021/10/13 12:48:52;;;;;;;0.93;0.80;;;15.80;73.50;;;;;;4902231;29;20492;-84
2021/10/13 12:51:18;;;;;;;1.33;0.90;;;15.80;73.40;;;;;;4869838;29;20498;-83
2021/10/13 12:53:45;;;;;;;0.75;0.68;;;15.80;73.40;;;;;;4901521;29;20044;-82
2021/10/13 12:56:20;;;;;;;1.95;0.88;;;15.90;73.50;;;;;;4885021;29;20037;-82
2021/10/13 12:58:47;;;;;;;;;;;15.90;73.40;;;;;;4916883;29;20035;-83
2021/10/13 13:01:13;;;;;;;1.38;0.70;;;15.90;73.30;;;;;;4901739;29;20265;-83
2021/10/13 13:03:39;;;;;;;1.85;1.00;;;15.90;73.20;;;;;;4900479;29;20037;-83